Date,TemperatureHighF,TemperatureAvgF,TemperatureLowF,DewpointHighF,DewpointAvgF,DewpointLowF,HumidityHigh,HumidityAvg,HumidityLow,PressureMaxIn,PressureMinIn,WindSpeedMaxMPH,WindSpeedAvgMPH,GustSpeedMaxMPH,PrecipitationSumIn
2013-1-1,53,50,47,53,45,31,100,84,50,30.12,29.94,14,1,14,0.58
2013-1-2,54,50,47,52,48,42,100,91,65,30.14,29.90,6,0,6,0.06
2013-1-3,49,44,37,48,42,28,100,95,66,30.29,30.09,10,1,10,0.00
2013-1-4,57,42,31,37,30,25,100,67,40,30.34,30.22,14,2,14,0.00
2013-1-5,51,41,29,40,30,24,100,66,46,30.38,30.22,8,1,8,0.02
2013-1-6,60,48,40,49,41,32,100,79,58,30.23,30.04,8,1,8,0.01
2013-1-7,56,42,33,37,32,30,99,70,40,30.41,30.21,9,1,9,0.00
2013-1-8,53,42,31,49,37,29,100,83,61,30.45,30.35,4,0,4,0.00
2013-1-9,64,55,48,60,52,43,100,88,72,30.45,30.38,7,0,7,0.00
2013-1-10,68,58,47,58,53,47,100,85,58,30.50,30.35,7,1,7,0.03
2013-1-11,58,52,51,58,52,51,100,100,100,30.35,30.17,6,0,6,0.53
2013-1-12,74,61,53,70,60,53,100,95,68,30.18,30.11,11,1,11,0.01
2013-1-13,73,62,55,68,61,55,100,96,73,30.16,30.07,11,1,11,0.00
2013-1-14,68,63,59,68,63,59,100,100,100,30.13,30.06,10,1,10,0.50
2013-1-15,64,53,46,64,53,46,100,100,100,30.16,30.05,12,0,12,0.56
2013-1-16,55,49,46,55,49,46,100,100,100,30.06,29.96,4,0,4,0.58
2013-1-17,56,49,40,56,49,40,100,100,100,30.21,29.74,17,2,17,1.06
2013-1-18,57,43,34,41,34,29,100,75,40,30.49,30.21,10,2,10,0.00
2013-1-19,59,42,30,43,33,29,100,75,40,30.49,30.18,9,2,9,0.01
2013-1-20,68,49,35,45,36,30,100,63,37,30.18,30.02,13,2,13,0.00
2013-1-21,67,48,33,46,33,22,100,63,32,30.08,29.94,20,3,20,0.00
2013-1-22,50,38,30,31,22,17,89,54,32,30.24,30.02,8,1,8,0.00
2013-1-23,57,40,25,36,26,17,95,59,40,30.33,30.07,12,2,12,0.00
2013-1-24,54,43,31,41,24,8,96,51,21,30.48,30.00,14,4,14,0.00
2013-1-25,34,31,27,34,23,13,99,73,49,30.50,30.10,8,1,8,0.00
2013-1-26,56,39,30,42,34,29,100,85,45,30.33,30.09,6,0,6,0.04
2013-1-27,50,39,32,42,33,30,100,80,58,30.54,30.33,7,0,7,0.00
2013-1-28,55,48,42,52,40,32,98,76,64,30.46,30.26,10,1,10,0.00
2013-1-29,72,58,42,65,55,42,100,91,69,30.27,30.03,10,2,10,0.01
2013-1-30,69,64,51,68,63,50,100,96,81,30.03,29.48,21,8,21,0.69
2013-1-31,58,47,38,50,34,26,96,62,39,30.06,29.61,19,7,19,0.00
2013-2-1,48,39,29,31,21,13,73,50,29,30.35,29.98,20,4,20,0.00
2013-2-2,50,36,24,41,27,17,99,72,34,30.37,30.04,14,3,14,0.03
2013-2-3,61,45,34,43,34,25,98,69,37,30.04,29.87,18,5,18,0.00
2013-2-4,55,43,32,37,29,23,86,60,40,30.12,30.01,8,1,8,0.00
2013-2-5,69,52,40,49,39,30,92,63,41,30.01,29.90,14,3,14,0.00
2013-2-6,70,50,36,48,36,28,100,66,23,30.19,29.99,6,0,6,0.00
2013-2-7,48,45,42,43,36,28,100,74,48,30.23,29.99,10,2,10,0.53
2013-2-8,62,49,41,52,42,31,100,79,44,30.14,29.90,18,4,18,0.00
2013-2-9,64,48,38,37,28,24,70,50,23,30.33,30.12,19,3,19,0.00
2013-2-10,61,47,38,54,38,29,100,72,35,30.41,30.17,8,1,8,0.43
2013-2-11,59,53,47,59,53,47,100,100,100,30.17,29.96,12,1,12,0.17
2013-2-12,62,52,43,52,42,30,100,73,33,30.10,29.88,8,0,8,0.16
2013-2-13,53,48,42,51,46,35,100,93,70,29.91,29.66,17,2,17,0.07
2013-2-14,43,41,41,36,34,33,80,75,73,29.93,29.89,12,4,12,0.00
2013-2-18,49,46,43,33,29,28,65,51,46,30.23,30.20,5,0,5,0.00
2013-2-19,56,45,40,49,37,22,100,74,41,30.21,29.90,12,2,12,0.24
2013-2-20,59,42,29,32,25,20,98,55,28,30.12,30.03,7,0,7,0.00
2013-2-21,63,45,30,43,27,21,98,54,22,30.22,30.07,5,0,5,0.07
2013-2-22,46,41,40,43,41,40,100,99,88,30.26,30.08,8,1,8,0.50
2013-2-23,49,43,39,49,43,39,100,100,100,30.14,29.83,6,0,6,0.41
2013-2-24,68,52,41,49,43,35,100,75,35,30.01,29.84,6,0,6,0.00
2013-2-25,48,43,38,39,31,28,92,64,50,30.15,30.00,10,3,10,0.00
2013-2-26,44,38,34,44,38,33,100,100,84,30.04,29.59,16,3,16,0.41
2013-2-27,63,50,39,45,40,35,100,72,47,29.81,29.66,14,5,14,0.00
2013-2-28,50,44,38,40,32,26,69,61,54,29.90,29.74,10,2,10,0.00
2013-3-1,54,43,33,41,32,27,95,64,45,29.93,29.83,9,1,9,0.00
2013-3-2,52,43,36,45,34,24,100,72,50,29.94,29.82,12,2,12,0.07
2013-3-3,51,38,31,27,22,19,76,54,35,30.01,29.88,12,4,12,0.00
2013-3-4,62,44,27,34,24,18,96,49,23,30.14,30.01,9,2,9,0.00
2013-3-5,55,48,44,52,42,31,100,80,61,30.07,29.65,15,1,15,0.56
2013-3-6,53,42,35,38,29,24,77,60,44,30.11,29.68,22,6,22,0.02
2013-3-7,64,45,31,37,31,27,100,60,31,30.24,30.11,12,2,12,0.00
2013-3-8,62,46,31,34,26,11,99,53,14,30.31,30.18,8,1,8,0.00
2013-3-9,68,48,32,39,32,26,100,56,26,30.35,30.23,6,0,6,0.00
2013-3-10,70,54,40,49,38,33,99,59,28,30.29,30.15,9,1,9,0.00
2013-3-11,69,56,46,62,49,39,100,77,54,30.17,29.82,14,2,14,0.69
2013-3-12,69,60,50,60,48,33,100,70,32,30.04,29.75,10,2,10,0.18
2013-3-13,66,48,35,40,31,23,100,57,25,30.17,30.00,20,4,20,0.00
2013-3-14,62,46,33,32,24,16,66,43,21,30.30,30.15,15,3,15,0.00
2013-3-15,75,52,32,44,35,24,97,54,30,30.19,29.90,15,3,15,0.00
2013-3-16,83,68,58,50,44,40,60,43,28,29.93,29.77,21,6,21,0.00
2013-3-17,84,67,51,51,45,41,71,47,27,30.11,29.86,14,4,14,0.00
2013-3-18,51,48,46,43,42,41,88,78,70,30.14,30.11,12,4,12,0.00
2013-3-19,57,53,49,35,29,24,48,39,34,30.09,30.03,8,1,8,0.00
2013-3-20,67,53,45,32,22,15,51,31,20,30.11,29.81,13,3,13,0.00
2013-3-21,55,42,31,36,24,17,96,52,24,29.96,29.81,12,2,12,0.00
2013-3-22,55,41,28,34,26,20,97,56,34,30.07,29.96,10,1,10,0.00
2013-3-23,54,48,44,53,44,30,100,86,50,30.03,29.87,7,0,7,0.07
2013-3-24,50,45,43,50,45,43,100,100,99,29.91,29.55,12,2,12,0.75
2013-3-25,52,44,38,46,33,25,100,66,42,29.94,29.56,23,7,23,0.02
2013-3-26,53,43,30,35,28,25,100,58,39,30.20,29.93,15,5,15,0.00
2013-3-27,61,46,35,34,28,24,92,53,28,30.27,30.16,10,2,10,0.00
2013-3-28,66,47,31,37,28,20,98,55,22,30.32,30.17,9,1,9,0.00
2013-3-29,70,49,32,46,33,25,99,58,25,30.34,30.21,12,2,12,0.00
2013-3-30,72,58,47,51,45,40,100,69,34,30.22,30.06,8,1,8,0.02
2013-3-31,75,62,53,62,55,47,100,82,48,30.09,29.85,15,3,15,0.62
2013-4-1,80,65,51,62,47,36,100,61,24,29.99,29.84,17,3,17,0.03
2013-4-2,75,58,42,45,35,26,98,48,19,30.15,29.98,10,2,10,0.00
2013-4-3,64,56,49,40,29,22,55,35,24,30.28,30.12,9,1,9,0.00
2013-4-4,55,44,38,40,35,27,100,75,45,30.25,29.99,13,3,13,0.55
2013-4-5,70,52,38,48,41,33,100,73,29,30.06,29.90,9,1,9,0.00
2013-4-6,74,57,39,48,39,31,100,59,23,30.23,30.06,8,1,8,0.00
2013-4-7,78,61,44,54,45,39,98,59,33,30.27,30.11,12,2,12,0.00
2013-4-8,80,66,53,59,53,48,100,69,38,30.19,30.07,13,2,13,0.00
2013-4-9,87,70,54,61,55,52,100,66,32,30.22,30.11,12,2,12,0.00
2013-4-10,88,77,61,64,57,54,97,54,34,30.14,29.97,13,2,13,0.00
2013-4-11,85,73,62,72,62,55,100,71,40,30.00,29.74,15,2,15,0.04
2013-4-12,84,72,61,72,55,37,100,64,22,29.85,29.68,18,5,18,0.80
2013-4-13,82,64,50,50,42,35,86,48,20,30.03,29.85,8,1,8,0.00
2013-4-14,73,62,48,59,48,41,98,64,37,30.09,29.98,7,0,7,0.05
2013-4-15,78,64,58,64,59,55,100,87,49,30.22,29.98,6,1,6,0.26
2013-4-16,84,70,62,67,61,56,100,77,42,30.30,30.19,6,0,6,0.00
2013-4-17,86,69,60,71,65,60,100,90,43,30.26,30.14,8,1,8,0.59
2013-4-18,84,70,60,70,64,58,100,82,42,30.17,29.99,7,1,7,0.00
2013-4-19,73,66,55,71,65,53,100,96,81,30.00,29.79,14,3,14,0.60
2013-4-20,71,56,45,53,38,32,94,53,28,30.28,29.95,12,2,12,0.00
2013-4-21,68,56,44,47,40,35,98,58,30,30.42,30.27,13,2,13,0.00
2013-4-22,67,56,48,49,42,36,91,61,36,30.41,30.22,10,2,10,0.00
2013-4-23,78,60,44,56,46,40,96,64,33,30.31,30.10,9,0,9,0.00
2013-4-24,79,68,53,66,58,52,100,75,46,30.16,30.03,15,4,15,0.00
2013-4-25,79,66,55,66,46,31,100,53,19,30.30,30.08,7,1,7,0.00
2013-4-26,78,62,48,51,41,35,85,49,23,30.44,30.30,9,1,9,0.00
2013-4-27,66,61,58,64,58,47,100,91,56,30.37,30.26,5,0,5,0.51
2013-4-28,60,57,55,60,57,55,100,100,100,30.27,30.07,7,0,7,2.19
2013-4-29,79,66,58,68,61,57,100,87,49,30.09,29.93,9,1,9,0.10
2013-4-30,80,67,56,68,62,56,100,86,48,30.19,30.00,7,1,7,0.01
2013-5-1,69,64,59,65,59,56,100,86,65,30.29,30.19,10,2,10,0.00
2013-5-2,62,60,58,62,60,58,100,100,96,30.31,30.24,9,2,9,0.09
2013-5-3,66,60,57,62,59,56,100,95,77,30.24,30.10,12,2,12,0.09
2013-5-4,60,55,52,59,52,44,100,90,66,30.12,29.94,14,4,14,0.61
2013-5-5,56,53,50,56,53,50,100,100,100,29.98,29.82,13,3,13,1.46
2013-5-6,70,60,52,60,54,48,100,82,52,29.95,29.81,12,1,12,0.01
2013-5-7,74,59,46,62,52,45,100,83,37,29.99,29.86,9,1,9,0.30
2013-5-8,79,65,51,65,57,51,100,79,46,30.06,29.95,13,2,13,0.01
2013-5-9,86,66,53,70,60,53,100,84,32,30.11,30.02,9,0,9,0.07
2013-5-10,85,70,56,71,61,56,100,78,42,30.11,29.98,12,2,12,0.01
2013-5-11,80,71,63,67,64,56,100,78,52,30.00,29.84,14,3,14,0.01
2013-5-12,80,67,54,65,48,34,95,56,20,30.08,29.88,12,2,12,0.00
2013-5-13,74,59,44,50,39,31,100,54,22,30.20,30.06,9,1,9,0.00
2013-5-14,78,62,43,53,45,40,100,60,31,30.27,30.11,9,1,9,0.00
2013-5-15,93,76,61,63,56,51,96,54,29,30.12,29.98,12,2,12,0.00
2013-5-16,85,74,61,66,60,55,98,66,38,30.06,29.99,10,1,10,0.00
2013-5-17,88,74,61,69,62,56,100,71,34,30.12,30.04,12,1,12,0.00
2013-5-18,77,70,65,75,69,64,100,97,81,30.16,30.08,6,0,6,0.52
2013-5-19,79,72,67,74,70,67,100,93,69,30.14,30.03,6,0,6,0.18
2013-5-20,88,74,64,76,68,64,100,86,48,30.14,30.04,6,0,6,0.00
2013-5-21,93,77,65,76,68,61,100,77,38,30.07,29.97,8,0,8,0.00
2013-5-22,89,76,66,73,68,64,100,79,49,30.04,29.88,12,1,12,0.25
2013-5-23,88,74,65,73,65,56,100,77,40,30.00,29.85,11,1,11,0.27
2013-5-24,79,69,58,63,49,35,100,55,22,30.25,29.93,22,3,22,0.00
2013-5-25,82,66,53,54,46,39,78,50,26,30.33,30.19,12,1,12,0.00
2013-5-26,80,66,55,58,52,46,98,64,31,30.32,30.19,7,0,7,0.00
2013-5-27,88,72,56,64,58,53,100,68,33,30.28,30.16,7,0,7,0.01
2013-5-28,89,74,62,69,63,58,100,72,37,30.25,30.18,7,1,7,0.00
2013-5-29,90,76,62,70,62,57,100,67,35,30.27,30.19,8,0,8,0.00
2013-5-30,89,75,63,70,64,58,100,72,36,30.30,30.20,7,0,7,0.00
2013-5-31,92,78,66,72,66,59,100,73,35,30.26,30.14,9,1,9,0.00
2013-6-1,91,79,70,73,67,61,99,69,39,30.17,30.05,10,1,10,0.00
2013-6-2,80,75,70,78,72,67,100,91,70,30.08,29.94,7,1,7,1.06
2013-6-3,87,74,67,77,71,67,100,90,53,30.00,29.88,7,0,7,0.03
2013-6-4,88,76,67,75,68,61,100,79,44,30.09,29.97,7,1,7,0.01
2013-6-5,86,76,70,76,71,68,100,88,57,30.11,29.99,10,1,10,0.65
2013-6-6,80,72,68,78,72,68,100,99,84,30.02,29.82,8,0,8,0.69
2013-6-7,88,75,68,78,72,67,100,93,57,29.87,29.70,9,1,9,0.12
2013-6-8,88,77,68,74,70,64,100,81,48,30.11,29.85,7,1,7,0.01
2013-6-9,88,75,68,78,72,68,100,93,56,30.17,30.08,10,0,10,1.61
2013-6-10,82,75,70,79,73,69,100,93,68,30.10,29.95,12,2,12,0.50
2013-6-11,91,80,71,78,71,60,100,79,37,30.04,29.97,7,1,7,0.16
2013-6-12,96,81,67,82,72,66,100,78,40,30.06,29.97,7,1,7,0.00
2013-6-13,98,84,73,80,72,64,100,74,35,29.97,29.74,15,2,15,0.01
2013-6-14,89,76,64,73,61,54,100,65,31,30.07,29.83,10,1,10,0.01
2013-6-15,89,74,61,68,61,58,100,69,36,30.17,30.07,9,1,9,0.00
2013-6-16,92,77,64,73,66,60,100,73,37,30.18,30.05,9,1,9,0.00
2013-6-17,86,77,71,80,74,68,100,92,62,30.08,29.98,18,1,18,1.62
2013-6-18,86,76,72,79,74,72,100,95,70,30.01,29.82,13,1,13,0.49
2013-6-19,86,76,69,73,69,63,100,81,46,30.15,29.94,6,1,6,0.00
2013-6-20,86,76,68,74,68,63,100,81,49,30.26,30.13,7,1,7,0.01
2013-6-21,87,76,66,70,66,59,100,75,41,30.30,30.20,6,1,6,0.00
2013-6-22,88,76,64,74,66,59,100,75,40,30.26,30.14,7,1,7,0.00
2013-6-23,92,79,69,76,71,65,100,82,44,30.25,30.14,6,0,6,0.02
2013-6-24,93,81,70,78,72,66,100,78,43,30.25,30.13,8,1,8,0.02
2013-6-25,95,81,73,76,72,66,100,78,40,30.19,30.06,10,1,10,0.00
2013-6-26,95,82,73,78,74,68,100,79,43,30.09,29.94,8,1,8,0.00
2013-6-27,95,82,74,82,75,70,100,83,45,30.00,29.76,12,2,12,0.55
2013-6-28,97,83,71,81,72,66,100,74,39,29.83,29.65,10,2,10,0.01
2013-6-29,92,82,71,77,70,62,100,73,38,29.75,29.66,9,1,9,0.00
2013-6-30,89,78,72,79,73,66,100,86,47,29.86,29.73,5,0,5,0.00
2013-7-1,86,77,71,78,73,69,100,89,58,30.00,29.83,8,0,8,0.48
2013-7-2,85,77,72,81,75,72,100,96,70,30.17,29.99,6,0,6,0.96
2013-7-3,85,76,70,78,75,70,100,96,72,30.26,30.14,9,0,9,0.32
2013-7-4,84,73,68,81,73,68,100,99,81,30.25,30.16,7,0,7,2.01
2013-7-5,89,76,70,79,74,69,100,92,53,30.27,30.20,8,0,8,0.33
2013-7-6,89,79,74,81,76,71,100,94,59,30.25,30.15,7,0,7,0.24
2013-7-7,88,80,74,80,75,71,100,88,57,30.21,30.11,10,1,10,0.14
2013-7-8,90,79,73,83,76,71,100,90,54,30.23,30.14,5,0,5,0.62
2013-7-9,93,81,71,81,75,68,100,85,47,30.23,30.09,7,1,7,0.30
2013-7-10,89,79,72,82,76,72,100,93,62,30.19,29.99,6,0,6,0.04
2013-7-11,86,79,75,81,78,75,100,96,72,30.02,29.91,5,0,5,0.01
2013-7-12,91,78,70,80,74,70,100,91,56,30.03,29.92,9,1,9,0.73
2013-7-13,81,74,67,78,73,67,100,98,85,30.13,30.03,7,1,7,0.04
2013-7-14,82,76,73,79,76,73,100,99,85,30.31,30.12,9,1,9,0.23
2013-7-15,89,79,70,80,74,69,100,88,53,30.36,30.28,8,1,8,0.11
2013-7-16,94,82,72,80,74,67,100,83,43,30.35,30.27,4,0,4,0.09
2013-7-17,95,81,73,81,75,69,100,85,46,30.31,30.16,13,0,13,0.66
2013-7-18,94,81,70,81,74,67,100,83,45,30.24,30.11,4,0,4,0.00
2013-7-19,94,82,72,81,75,69,100,82,47,30.17,30.03,8,1,8,0.01
2013-7-20,92,80,74,80,77,69,100,92,54,30.10,29.99,10,1,10,1.54
2013-7-21,92,78,72,81,76,71,100,93,54,30.06,29.97,6,0,6,0.85
2013-7-22,90,81,74,78,74,70,100,83,52,30.05,29.88,10,2,10,0.02
2013-7-23,93,82,72,80,73,66,100,79,41,29.93,29.82,9,1,9,0.00
2013-7-24,92,80,71,78,74,67,100,82,48,29.89,29.80,8,1,8,0.00
2013-7-25,90,77,69,79,72,67,100,87,50,30.06,29.88,8,1,8,1.66
2013-7-26,86,76,68,81,74,68,100,94,57,30.13,30.03,6,0,6,0.12
2013-7-27,88,78,72,81,75,70,100,92,57,30.06,29.94,7,1,7,0.83
2013-7-28,91,79,70,77,71,65,100,81,44,30.06,29.93,9,1,9,0.01
2013-7-29,90,77,67,78,70,64,100,83,44,30.19,30.04,5,0,5,0.00
2013-7-30,87,77,66,79,71,65,100,84,54,30.25,30.16,7,0,7,0.00
2013-7-31,81,77,73,80,76,73,100,99,89,30.21,30.01,5,0,5,0.17
2013-8-1,90,79,73,81,77,73,100,94,58,30.04,29.93,9,0,9,0.08
2013-8-2,91,79,69,80,72,66,100,83,47,30.07,29.96,5,0,5,0.00
2013-8-3,92,80,72,80,73,63,100,81,41,30.08,29.99,8,1,8,0.01
2013-8-4,92,80,71,77,71,65,100,77,45,30.07,29.98,8,1,8,0.00
2013-8-5,88,78,69,78,71,66,100,82,53,30.11,30.00,6,0,6,0.00
2013-8-6,84,79,71,79,76,71,100,92,73,30.10,30.01,6,1,6,0.00
2013-8-7,80,77,73,80,77,73,100,100,98,30.11,30.04,5,0,5,0.41
2013-8-8,87,80,73,82,76,70,100,90,61,30.11,30.05,9,1,9,0.00
2013-8-9,94,80,73,82,77,70,100,92,50,30.13,30.06,12,1,12,0.45
2013-8-10,95,80,74,83,77,70,100,92,48,30.17,30.10,9,1,9,0.23
2013-8-11,96,79,71,81,75,70,100,90,45,30.17,30.10,10,1,10,0.38
2013-8-12,94,80,71,83,76,69,100,88,48,30.13,30.00,10,0,10,0.10
2013-8-13,93,81,73,81,75,70,100,83,48,30.02,29.85,9,2,9,0.02
2013-8-14,84,76,71,76,71,66,100,86,57,30.10,29.91,6,0,6,0.01
2013-8-15,77,71,66,72,64,58,99,81,55,30.17,30.09,10,1,10,0.00
2013-8-16,75,69,64,70,66,63,100,92,68,30.19,30.11,8,1,8,0.24
2013-8-17,73,68,65,71,66,64,100,95,80,30.21,30.15,9,1,9,0.07
2013-8-18,79,74,70,77,73,70,100,98,84,30.26,30.17,4,0,4,0.17
2013-8-19,80,72,68,76,72,68,100,98,79,30.23,30.12,4,0,4,0.38
2013-8-20,80,74,68,79,74,68,100,98,82,30.24,30.15,3,0,3,0.00
2013-8-21,82,75,71,80,75,71,100,100,91,30.27,30.17,2,0,2,0.96
2013-8-22,91,78,70,80,75,67,100,92,47,30.21,30.07,7,0,7,0.08
2013-8-23,93,78,68,80,72,65,100,85,42,30.11,30.01,12,1,12,0.00
2013-8-24,85,75,68,74,67,60,100,79,45,30.33,30.11,12,2,12,0.00
2013-8-25,84,71,62,69,64,57,100,81,40,30.42,30.31,6,1,6,0.01
2013-8-26,87,73,61,73,65,60,100,81,42,30.37,30.18,6,0,6,0.00
2013-8-27,93,76,65,79,69,62,100,83,38,30.21,30.06,6,0,6,0.01
2013-8-28,93,80,70,79,73,66,100,83,42,30.09,29.99,6,0,6,0.00
2013-8-29,97,82,70,81,74,67,100,81,40,30.02,29.94,10,1,10,0.00
2013-8-30,88,80,75,80,75,70,100,87,55,30.10,29.98,7,0,7,0.00
2013-8-31,92,78,72,80,76,68,100,94,52,30.01,29.92,8,1,8,0.43
2013-9-1,93,80,71,82,75,67,100,88,46,29.97,29.86,13,1,13,0.02
2013-9-2,90,80,74,80,74,69,100,84,50,29.95,29.87,7,0,7,0.00
2013-9-3,91,78,69,80,72,65,100,86,44,30.02,29.88,8,0,8,0.06
2013-9-4,89,77,68,77,70,63,100,83,46,30.14,30.01,5,0,5,0.00
2013-9-5,93,78,68,80,70,62,100,82,37,30.16,30.10,6,0,6,0.01
2013-9-6,87,75,65,72,66,60,100,79,42,30.22,30.11,9,1,9,0.00
2013-9-7,90,75,66,74,67,62,100,81,40,30.18,30.03,7,0,7,0.00
2013-9-8,90,76,65,78,70,64,100,85,43,30.04,29.98,5,0,5,0.01
2013-9-9,89,78,68,77,71,64,100,82,46,30.19,30.04,6,0,6,0.00
2013-9-10,93,78,67,78,71,64,100,83,40,30.27,30.19,5,0,5,0.01
2013-9-11,95,79,67,78,70,63,100,80,36,30.26,30.14,6,0,6,0.00
2013-9-12,94,77,69,78,72,65,100,88,41,30.14,29.91,15,1,15,0.01
2013-9-13,90,76,67,75,65,54,100,73,34,29.94,29.81,12,1,12,0.00
2013-9-14,82,69,59,64,57,52,98,68,40,30.14,29.95,8,1,8,0.00
2013-9-15,82,70,61,74,65,61,100,86,53,30.24,30.14,7,0,7,0.00
2013-9-16,90,75,66,74,67,58,100,81,37,30.19,30.09,6,0,6,0.01
2013-9-17,79,71,67,68,60,56,91,68,50,30.32,30.19,9,2,9,0.00
2013-9-18,78,69,62,68,61,57,100,77,51,30.32,30.19,7,0,7,0.00
2013-9-19,86,72,61,74,66,61,100,84,45,30.22,30.11,5,0,5,0.00
2013-9-20,92,75,64,72,66,61,100,80,37,30.13,29.96,8,1,8,0.00
2013-9-21,76,70,66,75,70,66,100,100,98,29.97,29.69,7,0,7,1.05
2013-9-22,82,69,59,70,63,58,100,85,45,29.94,29.75,6,0,6,0.01
2013-9-23,79,68,62,67,62,57,100,84,50,30.08,29.94,0,0,0,0.00
2013-9-24,78,68,60,71,64,60,100,90,59,30.10,29.97,0,0,0,0.01
2013-9-25,70,66,64,69,66,64,100,100,92,29.97,29.89,5,0,5,0.45
2013-9-26,79,68,61,68,63,59,100,88,51,30.06,29.91,8,1,8,0.00
2013-9-27,81,67,57,66,60,56,100,83,45,30.21,30.06,8,1,8,0.01
2013-9-28,76,66,58,64,59,56,100,82,49,30.28,30.17,7,1,7,0.00
2013-9-29,77,66,58,66,60,54,100,83,46,30.21,30.06,6,0,6,0.00
2013-9-30,82,67,58,69,62,56,100,86,43,30.12,30.03,5,0,5,0.00
2013-10-1,85,68,57,72,61,55,100,82,37,30.18,30.07,7,0,7,0.00
2013-10-2,86,70,59,72,64,58,100,86,41,30.18,30.10,5,0,5,0.01
2013-10-3,89,72,60,70,64,58,100,82,37,30.17,30.10,7,0,7,0.00
2013-10-4,88,72,60,75,66,60,100,85,42,30.19,30.11,6,0,6,0.00
2013-10-5,90,73,62,74,66,60,100,83,37,30.17,30.07,2,0,2,0.01
2013-10-6,87,72,63,74,67,62,100,87,45,30.08,29.91,7,0,7,0.00
2013-10-7,78,71,60,76,68,59,100,93,67,30.02,29.84,8,0,8,0.50
2013-10-8,74,65,58,60,54,48,100,71,47,30.22,30.01,14,2,14,0.00
2013-10-9,76,63,55,58,50,46,97,66,36,30.25,30.12,10,2,10,0.00
2013-10-10,81,63,49,63,55,49,100,80,39,30.17,30.00,6,1,6,0.00
2013-10-11,86,68,56,62,58,51,100,76,32,30.04,29.96,9,1,9,0.00
2013-10-12,82,67,57,72,62,57,100,86,45,30.11,30.00,5,0,5,0.00
2013-10-13,78,72,66,70,66,62,100,85,59,30.24,30.11,7,1,7,0.00
2013-10-14,74,68,65,69,66,62,100,95,67,30.25,30.17,8,1,8,0.01
2013-10-15,73,65,59,66,62,58,100,92,61,30.22,30.08,5,0,5,0.00
2013-10-16,77,64,54,69,60,54,100,88,53,30.10,29.98,5,0,5,0.00
2013-10-17,72,67,62,71,66,62,100,99,81,30.00,29.90,6,0,6,0.23
2013-10-18,73,64,54,68,60,54,100,91,60,30.04,24.19,6,0,6,0.01
2013-10-19,68,63,54,66,61,53,100,95,72,29.99,29.89,8,0,8,0.03
2013-10-20,71,56,46,55,50,46,100,84,46,30.12,29.97,5,0,5,0.00
2013-10-21,72,57,46,61,53,46,100,88,53,30.18,24.19,7,0,7,0.01
2013-10-22,68,62,57,63,58,50,100,90,53,30.04,29.82,8,1,8,0.00
2013-10-23,72,57,46,58,46,34,100,71,33,30.07,24.19,13,2,13,0.01
2013-10-24,67,50,37,52,42,35,100,76,41,30.19,24.19,12,1,12,0.00
2013-10-25,60,47,38,44,37,31,100,71,38,31.75,26.46,9,1,9,0.00
2013-10-26,63,46,33,44,37,32,100,73,41,30.38,24.19,10,1,10,0.00
2013-10-27,74,56,42,62,48,39,100,80,45,30.14,24.19,7,0,7,0.00
2013-10-28,70,60,53,62,56,53,100,90,59,30.28,24.19,8,0,8,0.02
2013-10-29,74,61,51,63,56,51,100,85,48,30.37,24.19,5,0,5,0.00
2013-10-30,82,65,55,65,58,55,100,83,41,30.32,24.19,10,1,10,0.00
2013-10-31,76,65,56,69,61,56,100,88,59,30.21,24.19,8,1,8,0.00
2013-11-1,74,68,61,69,66,61,100,93,73,29.92,24.18,10,2,10,0.09
2013-11-2,74,58,47,61,51,43,100,80,40,30.04,24.19,12,1,12,0.04
2013-11-3,67,52,43,52,44,39,100,77,39,30.36,30.03,8,1,8,0.00
2013-11-4,62,50,43,46,40,35,98,71,40,30.51,24.19,10,1,10,0.00
2013-11-5,62,50,39,53,43,36,100,80,52,30.54,24.18,10,1,10,0.00
2013-11-6,70,59,53,62,55,53,100,88,58,31.75,24.19,207,1,207,0.00
2013-11-7,73,58,50,65,50,35,100,77,42,30.16,24.19,14,3,14,0.01
2013-11-8,66,50,40,36,31,22,82,49,21,30.31,24.19,16,4,16,0.00
2013-11-9,64,47,35,51,38,32,100,75,36,30.37,24.19,8,1,8,0.01
2013-11-10,75,55,42,52,42,37,100,66,27,30.23,30.13,6,0,6,0.00
2013-11-11,65,50,39,41,36,30,94,62,28,31.75,24.19,7,0,7,0.00
2013-11-12,68,47,34,48,35,19,100,67,37,30.46,24.18,18,4,18,0.00
2013-11-13,53,38,26,32,22,17,96,57,26,30.55,24.19,6,0,6,0.00
2013-11-14,62,42,27,36,27,22,100,62,25,31.75,24.19,9,1,9,0.00
2013-11-15,59,48,34,56,38,26,100,73,39,30.34,30.19,5,0,5,0.25
2013-11-16,67,57,50,62,56,50,100,96,76,30.27,24.18,7,0,7,0.00
2013-11-17,66,60,56,64,60,56,100,99,92,30.22,29.91,0,0,0,0.76
2013-11-18,79,64,54,66,53,35,100,71,32,30.01,24.19,14,2,14,0.02
2013-11-19,60,51,42,43,32,27,92,50,30,30.25,24.19,13,1,13,0.00
2013-11-20,55,47,39,41,33,31,85,61,43,31.75,24.19,127,2,127,0.00
2013-11-21,53,49,46,53,42,33,100,79,60,30.46,24.19,9,1,9,0.15
2013-11-22,63,57,51,63,57,51,100,100,100,30.40,24.19,7,0,7,0.04
2013-11-23,62,56,42,61,48,28,100,76,44,30.22,30.09,13,2,13,0.00
2013-11-24,48,38,32,29,22,18,73,52,34,30.51,30.22,14,2,14,0.00
2013-11-25,44,36,26,26,19,15,93,55,33,31.75,30.30,7,0,7,0.00
2013-11-26,49,40,34,49,39,19,100,96,44,30.30,24.18,9,1,9,0.84
2013-11-27,48,41,31,48,34,20,100,78,50,31.75,25.70,18,6,18,0.07
2013-11-28,77,37,26,34,27,-65,100,69,41,31.75,24.19,223,1,223,0.00
2013-11-29,56,40,29,38,30,26,100,73,32,30.58,30.44,6,0,6,0.00
2013-11-30,49,39,33,36,28,26,92,68,42,30.64,30.37,7,1,7,0.00
2013-12-1,59,44,34,44,37,31,100,78,47,30.37,24.18,7,0,7,0.00
2013-12-2,38,36,34,38,35,34,100,99,98,30.02,29.92,0,0,0,0.00
2013-12-9,49,47,46,49,47,46,100,100,100,30.09,30.05,0,0,0,0.00
2013-12-10,57,48,38,56,42,0,100,81,50,30.32,24.19,14,2,14,0.22
2013-12-11,56,40,29,37,32,0,100,74,43,31.75,24.19,8,1,8,0.00
2013-12-12,128,40,0,35,27,-69,100,64,29,31.75,24.19,239,1,239,0.00
2013-12-13,55,40,27,39,30,22,100,69,40,31.75,24.19,7,0,7,0.00
2013-12-14,44,43,40,44,39,32,100,89,65,30.26,24.18,8,1,8,0.56
2013-12-15,55,46,34,47,39,31,100,80,52,30.12,24.19,12,2,12,0.13
2013-12-16,62,45,30,43,35,-17,100,72,41,30.17,24.19,11,2,11,0.00
2013-12-17,65,51,37,44,37,27,97,61,40,30.16,29.96,17,4,17,0.00
2013-12-18,60,43,33,35,28,25,95,58,30,30.29,24.19,8,0,8,0.00
2013-12-19,64,45,31,39,31,27,100,61,29,30.32,24.19,9,1,9,0.00
2013-12-20,60,48,38,52,43,32,100,82,60,30.25,24.19,9,1,9,0.00
2013-12-21,62,56,48,62,56,48,100,100,99,30.16,30.00,6,0,6,0.03
2013-12-22,69,65,60,69,65,60,100,100,100,30.09,24.19,15,2,15,0.68
2013-12-23,62,57,48,62,54,38,100,91,68,30.18,30.00,8,1,8,0.44
2013-12-24,51,43,32,42,31,21,95,65,46,31.75,24.19,239,3,239,0.00
2013-12-25,45,34,26,28,21,15,92,61,36,30.52,24.19,6,0,6,0.00
2013-12-26,59,40,29,36,29,23,96,68,35,30.38,24.19,4,0,4,0.00
2013-12-27,55,39,30,37,30,-2,100,73,36,30.47,24.19,5,0,5,0.00
2013-12-28,51,37,29,47,34,0,100,88,52,30.41,24.19,6,0,6,0.03
2013-12-29,60,48,41,58,47,41,100,99,84,30.10,24.18,9,1,9,0.10
2013-12-30,55,46,37,51,44,37,100,93,70,30.13,24.19,8,1,8,0.01
2013-12-31,54,44,35,46,35,28,100,74,42,31.75,30.13,5,0,5,0.00
2014-1-1,52,41,33,41,35,30,100,81,54,30.99,24.19,4,0,4,0.00
2014-1-2,49,45,34,49,44,24,100,96,64,30.14,24.18,16,1,16,0.10